sensor_id;sensor_type;location;lat;lon;timestamp;P1;durP1;ratioP1;P2;durP2;ratioP2
81367;SDS011;70823;50.056;14.398;2023-10-19T00:00:36;5.70;;;4.30;;
81367;SDS011;70823;50.056;14.398;2023-10-19T00:03:04;5.88;;;4.15;;
81367;SDS011;70823;50.056;14.398;2023-10-19T00:05:31;6.03;;;4.10;;
81367;SDS011;70823;50.056;14.398;2023-10-19T00:07:57;5.80;;;3.88;;
81367;SDS011;70823;50.056;14.398;2023-10-19T00:10:24;5.95;;;4.20;;
81367;SDS011;70823;50.056;14.398;2023-10-19T00:12:53;6.80;;;3.78;;
81367;SDS011;70823;50.056;14.398;2023-10-19T00:15:25;5.10;;;3.50;;
81367;SDS011;70823;50.056;14.398;2023-10-19T00:17:55;6.07;;;3.72;;
81367;SDS011;70823;50.056;14.398;2023-10-19T00:20:21;7.15;;;4.18;;
81367;SDS011;70823;50.056;14.398;2023-10-19T00:23:00;5.75;;;3.83;;
81367;SDS011;70823;50.056;14.398;2023-10-19T00:25:30;4.85;;;3.58;;
81367;SDS011;70823;50.056;14.398;2023-10-19T00:27:56;6.57;;;4.22;;
81367;SDS011;70823;50.056;14.398;2023-10-19T00:30:25;5.80;;;3.92;;
81367;SDS011;70823;50.056;14.398;2023-10-19T00:32:55;6.00;;;3.97;;
81367;SDS011;70823;50.056;14.398;2023-10-19T00:35:21;5.80;;;3.60;;
81367;SDS011;70823;50.056;14.398;2023-10-19T00:37:52;6.30;;;4.25;;
81367;SDS011;70823;50.056;14.398;2023-10-19T00:40:21;6.25;;;3.58;;
81367;SDS011;70823;50.056;14.398;2023-10-19T00:43:02;6.22;;;3.80;;
81367;SDS011;70823;50.056;14.398;2023-10-19T00:45:33;5.55;;;4.00;;
81367;SDS011;70823;50.056;14.398;2023-10-19T00:48:04;5.78;;;3.58;;
81367;SDS011;70823;50.056;14.398;2023-10-19T00:50:33;5.25;;;3.90;;
81367;SDS011;70823;50.056;14.398;2023-10-19T00:52:58;5.40;;;3.90;;
81367;SDS011;70823;50.056;14.398;2023-10-19T00:55:24;6.22;;;4.07;;
81367;SDS011;70823;50.056;14.398;2023-10-19T00:57:52;5.25;;;3.75;;
81367;SDS011;70823;50.056;14.398;2023-10-19T01:00:19;5.28;;;3.53;;
81367;SDS011;70823;50.056;14.398;2023-10-19T01:02:55;6.88;;;3.72;;
81367;SDS011;70823;50.056;14.398;2023-10-19T01:05:24;5.40;;;3.97;;
81367;SDS011;70823;50.056;14.398;2023-10-19T01:07:57;5.18;;;3.67;;
81367;SDS011;70823;50.056;14.398;2023-10-19T01:10:22;5.75;;;3.60;;
81367;SDS011;70823;50.056;14.398;2023-10-19T01:12:48;6.93;;;3.95;;
81367;SDS011;70823;50.056;14.398;2023-10-19T01:15:18;5.40;;;3.42;;
81367;SDS011;70823;50.056;14.398;2023-10-19T01:17:53;5.18;;;3.38;;
81367;SDS011;70823;50.056;14.398;2023-10-19T01:20:25;5.38;;;3.70;;
81367;SDS011;70823;50.056;14.398;2023-10-19T01:28:19;4.82;;;3.55;;
81367;SDS011;70823;50.056;14.398;2023-10-19T01:30:44;5.38;;;3.60;;
81367;SDS011;70823;50.056;14.398;2023-10-19T01:33:10;5.53;;;3.65;;
81367;SDS011;70823;50.056;14.398;2023-10-19T01:35:40;5.97;;;3.53;;
81367;SDS011;70823;50.056;14.398;2023-10-19T01:38:24;5.68;;;3.92;;
81367;SDS011;70823;50.056;14.398;2023-10-19T01:40:50;5.75;;;3.78;;
81367;SDS011;70823;50.056;14.398;2023-10-19T01:43:16;5.05;;;3.50;;
81367;SDS011;70823;50.056;14.398;2023-10-19T01:45:51;5.03;;;3.45;;
81367;SDS011;70823;50.056;14.398;2023-10-19T01:48:19;6.45;;;3.65;;
81367;SDS011;70823;50.056;14.398;2023-10-19T01:53:13;4.50;;;3.50;;
81367;SDS011;70823;50.056;14.398;2023-10-19T01:55:41;5.40;;;3.65;;
81367;SDS011;70823;50.056;14.398;2023-10-19T01:58:07;5.50;;;3.53;;
81367;SDS011;70823;50.056;14.398;2023-10-19T02:00:33;5.95;;;3.70;;
81367;SDS011;70823;50.056;14.398;2023-10-19T02:03:02;5.95;;;3.92;;
81367;SDS011;70823;50.056;14.398;2023-10-19T02:05:32;5.00;;;3.63;;
81367;SDS011;70823;50.056;14.398;2023-10-19T02:08:04;5.95;;;3.72;;
81367;SDS011;70823;50.056;14.398;2023-10-19T02:10:32;5.80;;;3.60;;
81367;SDS011;70823;50.056;14.398;2023-10-19T02:12:58;5.68;;;3.58;;
81367;SDS011;70823;50.056;14.398;2023-10-19T02:15:23;4.70;;;3.35;;
81367;SDS011;70823;50.056;14.398;2023-10-19T02:17:49;5.47;;;3.50;;
81367;SDS011;70823;50.056;14.398;2023-10-19T02:20:14;5.23;;;3.33;;
81367;SDS011;70823;50.056;14.398;2023-10-19T02:22:42;5.47;;;3.63;;
81367;SDS011;70823;50.056;14.398;2023-10-19T02:25:09;5.28;;;3.67;;
81367;SDS011;70823;50.056;14.398;2023-10-19T02:27:36;5.50;;;3.47;;
81367;SDS011;70823;50.056;14.398;2023-10-19T02:30:01;4.87;;;3.40;;
81367;SDS011;70823;50.056;14.398;2023-10-19T02:32:27;5.40;;;3.45;;
81367;SDS011;70823;50.056;14.398;2023-10-19T02:34:52;5.00;;;3.50;;
81367;SDS011;70823;50.056;14.398;2023-10-19T02:37:17;5.07;;;3.33;;
81367;SDS011;70823;50.056;14.398;2023-10-19T02:39:43;5.17;;;3.73;;
81367;SDS011;70823;50.056;14.398;2023-10-19T02:42:08;4.78;;;3.58;;
81367;SDS011;70823;50.056;14.398;2023-10-19T02:44:34;5.20;;;3.33;;
81367;SDS011;70823;50.056;14.398;2023-10-19T02:46:59;4.50;;;3.45;;
81367;SDS011;70823;50.056;14.398;2023-10-19T02:49:25;4.88;;;3.42;;
81367;SDS011;70823;50.056;14.398;2023-10-19T02:51:54;6.20;;;3.50;;
81367;SDS011;70823;50.056;14.398;2023-10-19T02:54:20;5.37;;;3.50;;
81367;SDS011;70823;50.056;14.398;2023-10-19T02:56:52;5.22;;;3.58;;
81367;SDS011;70823;50.056;14.398;2023-10-19T02:59:22;5.10;;;3.40;;
81367;SDS011;70823;50.056;14.398;2023-10-19T03:01:52;5.47;;;3.67;;
81367;SDS011;70823;50.056;14.398;2023-10-19T03:04:36;5.07;;;3.67;;
81367;SDS011;70823;50.056;14.398;2023-10-19T03:07:02;5.10;;;3.45;;
81367;SDS011;70823;50.056;14.398;2023-10-19T03:09:29;5.28;;;3.60;;
81367;SDS011;70823;50.056;14.398;2023-10-19T03:11:55;4.88;;;3.25;;
81367;SDS011;70823;50.056;14.398;2023-10-19T03:14:25;4.75;;;3.45;;
81367;SDS011;70823;50.056;14.398;2023-10-19T03:16:50;5.68;;;3.95;;
81367;SDS011;70823;50.056;14.398;2023-10-19T03:19:16;5.13;;;4.03;;
81367;SDS011;70823;50.056;14.398;2023-10-19T03:21:41;5.57;;;3.60;;
81367;SDS011;70823;50.056;14.398;2023-10-19T03:24:08;4.55;;;3.35;;
81367;SDS011;70823;50.056;14.398;2023-10-19T03:26:53;5.25;;;3.85;;
81367;SDS011;70823;50.056;14.398;2023-10-19T03:29:19;4.40;;;3.25;;
81367;SDS011;70823;50.056;14.398;2023-10-19T03:31:47;5.00;;;3.58;;
81367;SDS011;70823;50.056;14.398;2023-10-19T03:34:12;5.77;;;3.77;;
81367;SDS011;70823;50.056;14.398;2023-10-19T03:36:38;5.18;;;3.40;;
81367;SDS011;70823;50.056;14.398;2023-10-19T03:39:04;5.38;;;3.78;;
81367;SDS011;70823;50.056;14.398;2023-10-19T03:41:36;5.05;;;3.45;;
81367;SDS011;70823;50.056;14.398;2023-10-19T03:44:03;4.80;;;3.13;;
81367;SDS011;70823;50.056;14.398;2023-10-19T03:46:29;5.93;;;3.45;;
81367;SDS011;70823;50.056;14.398;2023-10-19T03:49:02;5.57;;;3.40;;
81367;SDS011;70823;50.056;14.398;2023-10-19T03:51:36;5.28;;;3.28;;
81367;SDS011;70823;50.056;14.398;2023-10-19T03:54:08;4.93;;;3.30;;
81367;SDS011;70823;50.056;14.398;2023-10-19T03:56:48;5.15;;;3.30;;
81367;SDS011;70823;50.056;14.398;2023-10-19T03:59:13;4.43;;;3.25;;
81367;SDS011;70823;50.056;14.398;2023-10-19T04:01:39;5.60;;;3.50;;
81367;SDS011;70823;50.056;14.398;2023-10-19T04:04:04;4.70;;;3.30;;
81367;SDS011;70823;50.056;14.398;2023-10-19T04:06:30;5.15;;;3.28;;
81367;SDS011;70823;50.056;14.398;2023-10-19T04:08:55;5.07;;;3.70;;
81367;SDS011;70823;50.056;14.398;2023-10-19T04:11:20;5.57;;;3.50;;
81367;SDS011;70823;50.056;14.398;2023-10-19T04:13:57;5.00;;;3.40;;
81367;SDS011;70823;50.056;14.398;2023-10-19T04:16:24;5.38;;;3.03;;
81367;SDS011;70823;50.056;14.398;2023-10-19T04:18:49;4.47;;;3.30;;
81367;SDS011;70823;50.056;14.398;2023-10-19T04:21:14;5.43;;;3.10;;
81367;SDS011;70823;50.056;14.398;2023-10-19T04:23:40;4.93;;;3.33;;
81367;SDS011;70823;50.056;14.398;2023-10-19T04:26:05;5.05;;;3.28;;
81367;SDS011;70823;50.056;14.398;2023-10-19T04:28:36;5.45;;;3.13;;
81367;SDS011;70823;50.056;14.398;2023-10-19T04:31:14;5.38;;;3.40;;
81367;SDS011;70823;50.056;14.398;2023-10-19T04:33:41;4.65;;;3.28;;
81367;SDS011;70823;50.056;14.398;2023-10-19T04:36:11;5.90;;;3.50;;
81367;SDS011;70823;50.056;14.398;2023-10-19T04:38:37;5.18;;;3.22;;
81367;SDS011;70823;50.056;14.398;2023-10-19T04:41:03;5.88;;;3.33;;
81367;SDS011;70823;50.056;14.398;2023-10-19T04:43:32;4.28;;;3.30;;
81367;SDS011;70823;50.056;14.398;2023-10-19T04:45:57;5.17;;;3.20;;
81367;SDS011;70823;50.056;14.398;2023-10-19T04:48:23;4.55;;;3.22;;
81367;SDS011;70823;50.056;14.398;2023-10-19T04:50:48;4.10;;;2.80;;
81367;SDS011;70823;50.056;14.398;2023-10-19T04:53:14;4.57;;;2.90;;
81367;SDS011;70823;50.056;14.398;2023-10-19T04:55:39;4.30;;;3.37;;
81367;SDS011;70823;50.056;14.398;2023-10-19T04:58:04;4.30;;;2.77;;
81367;SDS011;70823;50.056;14.398;2023-10-19T05:00:30;4.80;;;3.45;;
81367;SDS011;70823;50.056;14.398;2023-10-19T05:02:58;4.20;;;3.42;;
81367;SDS011;70823;50.056;14.398;2023-10-19T05:05:23;4.97;;;3.42;;
81367;SDS011;70823;50.056;14.398;2023-10-19T05:07:48;5.23;;;3.20;;
81367;SDS011;70823;50.056;14.398;2023-10-19T05:10:14;4.80;;;3.45;;
81367;SDS011;70823;50.056;14.398;2023-10-19T05:12:39;4.17;;;3.20;;
81367;SDS011;70823;50.056;14.398;2023-10-19T05:15:04;5.33;;;3.20;;
81367;SDS011;70823;50.056;14.398;2023-10-19T05:17:30;4.95;;;3.10;;
81367;SDS011;70823;50.056;14.398;2023-10-19T05:19:56;3.90;;;3.05;;
81367;SDS011;70823;50.056;14.398;2023-10-19T05:22:21;5.13;;;3.50;;
81367;SDS011;70823;50.056;14.398;2023-10-19T05:24:50;4.78;;;3.13;;
81367;SDS011;70823;50.056;14.398;2023-10-19T05:27:15;4.30;;;3.10;;
81367;SDS011;70823;50.056;14.398;2023-10-19T05:29:40;5.53;;;3.33;;
81367;SDS011;70823;50.056;14.398;2023-10-19T05:32:06;7.83;;;3.57;;
81367;SDS011;70823;50.056;14.398;2023-10-19T05:34:31;4.93;;;3.40;;
81367;SDS011;70823;50.056;14.398;2023-10-19T05:37:01;5.13;;;3.83;;
81367;SDS011;70823;50.056;14.398;2023-10-19T05:39:30;5.70;;;3.40;;
81367;SDS011;70823;50.056;14.398;2023-10-19T05:41:56;5.15;;;3.55;;
81367;SDS011;70823;50.056;14.398;2023-10-19T05:44:25;5.20;;;3.28;;
81367;SDS011;70823;50.056;14.398;2023-10-19T05:46:50;5.40;;;3.72;;
81367;SDS011;70823;50.056;14.398;2023-10-19T05:49:16;5.07;;;3.42;;
81367;SDS011;70823;50.056;14.398;2023-10-19T05:51:42;4.57;;;3.25;;
81367;SDS011;70823;50.056;14.398;2023-10-19T05:54:09;4.85;;;3.25;;
81367;SDS011;70823;50.056;14.398;2023-10-19T05:56:34;5.53;;;3.30;;
81367;SDS011;70823;50.056;14.398;2023-10-19T05:58:59;4.53;;;3.10;;
81367;SDS011;70823;50.056;14.398;2023-10-19T06:01:26;5.43;;;3.30;;
81367;SDS011;70823;50.056;14.398;2023-10-19T06:03:51;5.13;;;3.80;;
81367;SDS011;70823;50.056;14.398;2023-10-19T06:06:17;5.22;;;3.20;;
81367;SDS011;70823;50.056;14.398;2023-10-19T06:08:44;4.32;;;3.00;;
81367;SDS011;70823;50.056;14.398;2023-10-19T06:11:09;6.03;;;3.57;;
81367;SDS011;70823;50.056;14.398;2023-10-19T06:13:35;7.57;;;3.20;;
81367;SDS011;70823;50.056;14.398;2023-10-19T06:16:00;5.23;;;3.70;;
81367;SDS011;70823;50.056;14.398;2023-10-19T06:18:25;4.77;;;2.97;;
81367;SDS011;70823;50.056;14.398;2023-10-19T06:20:51;5.53;;;3.30;;
81367;SDS011;70823;50.056;14.398;2023-10-19T06:23:16;5.30;;;3.17;;
81367;SDS011;70823;50.056;14.398;2023-10-19T06:25:43;5.70;;;3.03;;
81367;SDS011;70823;50.056;14.398;2023-10-19T06:28:08;4.57;;;3.40;;
81367;SDS011;70823;50.056;14.398;2023-10-19T06:30:34;4.70;;;3.10;;
81367;SDS011;70823;50.056;14.398;2023-10-19T06:32:59;6.10;;;3.30;;
81367;SDS011;70823;50.056;14.398;2023-10-19T06:35:28;5.60;;;3.30;;
81367;SDS011;70823;50.056;14.398;2023-10-19T06:37:56;4.72;;;3.42;;
81367;SDS011;70823;50.056;14.398;2023-10-19T06:40:22;4.85;;;2.97;;
81367;SDS011;70823;50.056;14.398;2023-10-19T06:42:48;5.47;;;3.05;;
81367;SDS011;70823;50.056;14.398;2023-10-19T06:45:17;4.30;;;3.40;;
81367;SDS011;70823;50.056;14.398;2023-10-19T06:47:44;4.10;;;3.08;;
81367;SDS011;70823;50.056;14.398;2023-10-19T06:50:11;7.38;;;3.58;;
81367;SDS011;70823;50.056;14.398;2023-10-19T06:52:38;5.53;;;3.03;;
81367;SDS011;70823;50.056;14.398;2023-10-19T06:55:04;4.95;;;2.95;;
81367;SDS011;70823;50.056;14.398;2023-10-19T06:57:30;4.75;;;3.38;;
81367;SDS011;70823;50.056;14.398;2023-10-19T06:59:57;4.13;;;3.05;;
81367;SDS011;70823;50.056;14.398;2023-10-19T07:02:23;4.10;;;3.35;;
81367;SDS011;70823;50.056;14.398;2023-10-19T07:04:48;6.18;;;3.45;;
81367;SDS011;70823;50.056;14.398;2023-10-19T07:07:14;4.97;;;3.10;;
81367;SDS011;70823;50.056;14.398;2023-10-19T07:09:39;5.17;;;3.20;;
81367;SDS011;70823;50.056;14.398;2023-10-19T07:12:06;4.55;;;3.10;;
81367;SDS011;70823;50.056;14.398;2023-10-19T07:14:33;4.55;;;2.97;;
81367;SDS011;70823;50.056;14.398;2023-10-19T07:16:58;3.95;;;2.80;;
81367;SDS011;70823;50.056;14.398;2023-10-19T07:19:24;3.90;;;2.80;;
81367;SDS011;70823;50.056;14.398;2023-10-19T07:21:49;6.88;;;3.30;;
81367;SDS011;70823;50.056;14.398;2023-10-19T07:24:22;4.80;;;3.45;;
81367;SDS011;70823;50.056;14.398;2023-10-19T07:26:48;17.38;;;4.15;;
81367;SDS011;70823;50.056;14.398;2023-10-19T07:29:30;7.20;;;3.97;;
81367;SDS011;70823;50.056;14.398;2023-10-19T07:31:56;4.55;;;3.35;;
81367;SDS011;70823;50.056;14.398;2023-10-19T07:34:23;4.65;;;3.65;;
81367;SDS011;70823;50.056;14.398;2023-10-19T07:36:52;5.25;;;3.38;;
81367;SDS011;70823;50.056;14.398;2023-10-19T07:39:19;4.97;;;3.80;;
81367;SDS011;70823;50.056;14.398;2023-10-19T07:41:45;5.45;;;3.30;;
81367;SDS011;70823;50.056;14.398;2023-10-19T07:44:11;5.53;;;3.67;;
81367;SDS011;70823;50.056;14.398;2023-10-19T07:46:37;4.80;;;3.33;;
81367;SDS011;70823;50.056;14.398;2023-10-19T07:49:02;4.33;;;3.43;;
81367;SDS011;70823;50.056;14.398;2023-10-19T07:51:28;5.95;;;3.72;;
81367;SDS011;70823;50.056;14.398;2023-10-19T07:53:54;6.97;;;3.70;;
81367;SDS011;70823;50.056;14.398;2023-10-19T07:56:20;5.15;;;3.72;;
81367;SDS011;70823;50.056;14.398;2023-10-19T07:58:46;6.00;;;4.25;;
81367;SDS011;70823;50.056;14.398;2023-10-19T08:01:11;5.03;;;3.67;;
81367;SDS011;70823;50.056;14.398;2023-10-19T08:03:37;6.68;;;3.70;;
81367;SDS011;70823;50.056;14.398;2023-10-19T08:06:02;5.50;;;4.05;;
81367;SDS011;70823;50.056;14.398;2023-10-19T08:08:29;6.03;;;4.03;;
81367;SDS011;70823;50.056;14.398;2023-10-19T08:10:59;6.28;;;4.13;;
81367;SDS011;70823;50.056;14.398;2023-10-19T08:13:24;5.00;;;3.45;;
81367;SDS011;70823;50.056;14.398;2023-10-19T08:15:51;5.68;;;3.80;;
81367;SDS011;70823;50.056;14.398;2023-10-19T08:18:16;5.95;;;3.90;;
81367;SDS011;70823;50.056;14.398;2023-10-19T08:20:43;5.10;;;3.65;;
81367;SDS011;70823;50.056;14.398;2023-10-19T08:23:10;5.57;;;4.22;;
81367;SDS011;70823;50.056;14.398;2023-10-19T08:25:36;5.07;;;4.03;;
81367;SDS011;70823;50.056;14.398;2023-10-19T08:28:01;5.32;;;4.07;;
81367;SDS011;70823;50.056;14.398;2023-10-19T08:30:26;5.80;;;3.95;;
81367;SDS011;70823;50.056;14.398;2023-10-19T08:32:52;5.40;;;3.60;;
81367;SDS011;70823;50.056;14.398;2023-10-19T08:35:18;5.77;;;4.07;;
81367;SDS011;70823;50.056;14.398;2023-10-19T08:37:49;5.22;;;3.85;;
81367;SDS011;70823;50.056;14.398;2023-10-19T08:40:14;5.38;;;3.70;;
81367;SDS011;70823;50.056;14.398;2023-10-19T08:42:44;6.07;;;4.15;;
81367;SDS011;70823;50.056;14.398;2023-10-19T08:45:13;5.50;;;3.67;;
81367;SDS011;70823;50.056;14.398;2023-10-19T08:47:51;4.68;;;3.97;;
81367;SDS011;70823;50.056;14.398;2023-10-19T08:50:21;5.15;;;3.45;;
81367;SDS011;70823;50.056;14.398;2023-10-19T08:52:49;5.10;;;3.90;;
81367;SDS011;70823;50.056;14.398;2023-10-19T08:55:17;5.32;;;3.50;;
81367;SDS011;70823;50.056;14.398;2023-10-19T08:57:43;5.75;;;3.85;;
81367;SDS011;70823;50.056;14.398;2023-10-19T09:00:08;6.07;;;3.90;;
81367;SDS011;70823;50.056;14.398;2023-10-19T09:02:34;5.90;;;3.88;;
81367;SDS011;70823;50.056;14.398;2023-10-19T09:05:05;5.47;;;4.13;;
81367;SDS011;70823;50.056;14.398;2023-10-19T09:07:31;6.00;;;3.70;;
81367;SDS011;70823;50.056;14.398;2023-10-19T09:09:59;5.45;;;3.88;;
81367;SDS011;70823;50.056;14.398;2023-10-19T09:12:24;4.60;;;3.43;;
81367;SDS011;70823;50.056;14.398;2023-10-19T09:14:49;5.53;;;3.40;;
81367;SDS011;70823;50.056;14.398;2023-10-19T09:17:15;6.77;;;4.33;;
81367;SDS011;70823;50.056;14.398;2023-10-19T09:19:43;5.97;;;3.70;;
81367;SDS011;70823;50.056;14.398;2023-10-19T09:22:12;6.13;;;3.97;;
81367;SDS011;70823;50.056;14.398;2023-10-19T09:24:47;5.35;;;3.75;;
81367;SDS011;70823;50.056;14.398;2023-10-19T09:27:16;4.40;;;3.30;;
81367;SDS011;70823;50.056;14.398;2023-10-19T09:29:42;4.70;;;3.63;;
81367;SDS011;70823;50.056;14.398;2023-10-19T09:32:07;5.25;;;3.90;;
81367;SDS011;70823;50.056;14.398;2023-10-19T09:34:33;5.22;;;3.78;;
81367;SDS011;70823;50.056;14.398;2023-10-19T09:36:59;5.25;;;3.47;;
81367;SDS011;70823;50.056;14.398;2023-10-19T09:39:26;5.03;;;3.30;;
81367;SDS011;70823;50.056;14.398;2023-10-19T09:42:01;5.00;;;3.67;;
81367;SDS011;70823;50.056;14.398;2023-10-19T09:44:39;5.30;;;3.58;;
81367;SDS011;70823;50.056;14.398;2023-10-19T09:47:08;4.07;;;3.50;;
81367;SDS011;70823;50.056;14.398;2023-10-19T09:49:36;5.43;;;3.53;;
81367;SDS011;70823;50.056;14.398;2023-10-19T09:52:01;4.40;;;3.42;;
81367;SDS011;70823;50.056;14.398;2023-10-19T09:57:36;4.38;;;3.38;;
81367;SDS011;70823;50.056;14.398;2023-10-19T10:00:05;4.43;;;3.53;;
81367;SDS011;70823;50.056;14.398;2023-10-19T10:02:38;5.20;;;4.00;;
81367;SDS011;70823;50.056;14.398;2023-10-19T10:05:06;5.15;;;3.53;;
81367;SDS011;70823;50.056;14.398;2023-10-19T10:10:43;4.30;;;3.38;;
81367;SDS011;70823;50.056;14.398;2023-10-19T10:15:49;4.65;;;3.25;;
81367;SDS011;70823;50.056;14.398;2023-10-19T10:18:15;4.70;;;3.28;;
81367;SDS011;70823;50.056;14.398;2023-10-19T10:20:40;4.28;;;3.28;;
81367;SDS011;70823;50.056;14.398;2023-10-19T10:23:16;6.25;;;3.63;;
81367;SDS011;70823;50.056;14.398;2023-10-19T10:25:46;4.90;;;3.42;;
81367;SDS011;70823;50.056;14.398;2023-10-19T10:36:05;5.78;;;3.67;;
81367;SDS011;70823;50.056;14.398;2023-10-19T10:38:32;4.78;;;3.53;;
81367;SDS011;70823;50.056;14.398;2023-10-19T10:40:59;4.97;;;3.47;;
81367;SDS011;70823;50.056;14.398;2023-10-19T10:43:24;5.37;;;4.07;;
81367;SDS011;70823;50.056;14.398;2023-10-19T10:45:50;5.40;;;4.03;;
81367;SDS011;70823;50.056;14.398;2023-10-19T10:48:16;6.78;;;4.25;;
81367;SDS011;70823;50.056;14.398;2023-10-19T10:50:44;5.93;;;4.38;;
81367;SDS011;70823;50.056;14.398;2023-10-19T10:53:11;7.80;;;5.28;;
81367;SDS011;70823;50.056;14.398;2023-10-19T10:55:37;8.07;;;5.00;;
81367;SDS011;70823;50.056;14.398;2023-10-19T10:58:02;8.07;;;4.65;;
81367;SDS011;70823;50.056;14.398;2023-10-19T11:00:28;6.13;;;4.80;;
81367;SDS011;70823;50.056;14.398;2023-10-19T11:03:03;5.88;;;4.60;;
81367;SDS011;70823;50.056;14.398;2023-10-19T11:05:32;7.43;;;5.35;;
81367;SDS011;70823;50.056;14.398;2023-10-19T11:08:03;26.50;;;5.82;;
81367;SDS011;70823;50.056;14.398;2023-10-19T11:10:31;12.00;;;5.97;;
81367;SDS011;70823;50.056;14.398;2023-10-19T11:13:04;9.80;;;6.15;;
81367;SDS011;70823;50.056;14.398;2023-10-19T11:15:34;9.38;;;6.13;;
81367;SDS011;70823;50.056;14.398;2023-10-19T11:18:02;11.40;;;6.90;;
81367;SDS011;70823;50.056;14.398;2023-10-19T11:20:27;10.43;;;6.68;;
81367;SDS011;70823;50.056;14.398;2023-10-19T11:22:54;11.20;;;6.90;;
81367;SDS011;70823;50.056;14.398;2023-10-19T11:25:29;15.02;;;8.75;;
81367;SDS011;70823;50.056;14.398;2023-10-19T11:27:56;15.30;;;8.95;;
81367;SDS011;70823;50.056;14.398;2023-10-19T11:30:29;26.98;;;12.80;;
81367;SDS011;70823;50.056;14.398;2023-10-19T11:32:58;18.10;;;9.18;;
81367;SDS011;70823;50.056;14.398;2023-10-19T11:35:26;16.33;;;9.40;;
81367;SDS011;70823;50.056;14.398;2023-10-19T11:37:54;10.43;;;8.07;;
81367;SDS011;70823;50.056;14.398;2023-10-19T11:40:22;12.60;;;8.48;;
81367;SDS011;70823;50.056;14.398;2023-10-19T11:42:48;10.13;;;7.63;;
81367;SDS011;70823;50.056;14.398;2023-10-19T11:45:14;9.63;;;7.80;;
81367;SDS011;70823;50.056;14.398;2023-10-19T11:47:41;12.05;;;7.60;;
81367;SDS011;70823;50.056;14.398;2023-10-19T11:50:06;11.75;;;8.25;;
81367;SDS011;70823;50.056;14.398;2023-10-19T11:52:32;12.40;;;8.15;;
81367;SDS011;70823;50.056;14.398;2023-10-19T11:54:58;10.77;;;7.88;;
81367;SDS011;70823;50.056;14.398;2023-10-19T11:57:24;12.93;;;7.77;;
81367;SDS011;70823;50.056;14.398;2023-10-19T11:59:50;10.70;;;7.60;;
81367;SDS011;70823;50.056;14.398;2023-10-19T12:02:18;10.77;;;8.05;;
81367;SDS011;70823;50.056;14.398;2023-10-19T12:04:43;10.38;;;7.45;;
81367;SDS011;70823;50.056;14.398;2023-10-19T12:07:09;11.02;;;7.28;;
81367;SDS011;70823;50.056;14.398;2023-10-19T12:09:34;10.97;;;7.23;;
81367;SDS011;70823;50.056;14.398;2023-10-19T12:12:00;19.20;;;7.40;;
81367;SDS011;70823;50.056;14.398;2023-10-19T12:14:28;11.63;;;6.57;;
81367;SDS011;70823;50.056;14.398;2023-10-19T12:16:53;10.95;;;6.88;;
81367;SDS011;70823;50.056;14.398;2023-10-19T12:19:19;10.47;;;7.27;;
81367;SDS011;70823;50.056;14.398;2023-10-19T12:21:44;9.43;;;6.97;;
81367;SDS011;70823;50.056;14.398;2023-10-19T12:24:10;12.80;;;7.90;;
81367;SDS011;70823;50.056;14.398;2023-10-19T12:26:36;11.32;;;7.68;;
81367;SDS011;70823;50.056;14.398;2023-10-19T12:29:01;11.20;;;7.50;;
81367;SDS011;70823;50.056;14.398;2023-10-19T12:31:28;11.15;;;7.32;;
81367;SDS011;70823;50.056;14.398;2023-10-19T12:33:55;11.73;;;7.10;;
81367;SDS011;70823;50.056;14.398;2023-10-19T12:36:21;11.93;;;7.43;;
81367;SDS011;70823;50.056;14.398;2023-10-19T12:38:52;11.48;;;7.63;;
81367;SDS011;70823;50.056;14.398;2023-10-19T12:41:20;12.07;;;8.00;;
81367;SDS011;70823;50.056;14.398;2023-10-19T12:43:46;10.38;;;7.53;;
81367;SDS011;70823;50.056;14.398;2023-10-19T12:46:12;11.02;;;7.63;;
81367;SDS011;70823;50.056;14.398;2023-10-19T12:48:39;9.73;;;7.03;;
81367;SDS011;70823;50.056;14.398;2023-10-19T12:51:07;9.38;;;7.03;;
81367;SDS011;70823;50.056;14.398;2023-10-19T12:53:34;9.75;;;7.13;;
81367;SDS011;70823;50.056;14.398;2023-10-19T12:55:59;10.30;;;7.85;;
81367;SDS011;70823;50.056;14.398;2023-10-19T12:58:25;9.57;;;7.43;;
81367;SDS011;70823;50.056;14.398;2023-10-19T13:00:52;11.98;;;8.25;;
81367;SDS011;70823;50.056;14.398;2023-10-19T13:03:19;8.75;;;7.22;;
81367;SDS011;70823;50.056;14.398;2023-10-19T13:05:44;10.53;;;7.17;;
81367;SDS011;70823;50.056;14.398;2023-10-19T13:08:10;12.43;;;7.40;;
81367;SDS011;70823;50.056;14.398;2023-10-19T13:13:05;9.80;;;7.22;;
81367;SDS011;70823;50.056;14.398;2023-10-19T13:15:32;10.63;;;7.22;;
81367;SDS011;70823;50.056;14.398;2023-10-19T13:17:59;10.20;;;7.53;;
81367;SDS011;70823;50.056;14.398;2023-10-19T13:20:25;10.82;;;7.15;;
81367;SDS011;70823;50.056;14.398;2023-10-19T13:22:51;10.20;;;7.55;;
81367;SDS011;70823;50.056;14.398;2023-10-19T13:25:17;10.45;;;7.80;;
81367;SDS011;70823;50.056;14.398;2023-10-19T13:27:45;9.05;;;7.00;;
81367;SDS011;70823;50.056;14.398;2023-10-19T13:30:14;8.50;;;6.78;;
81367;SDS011;70823;50.056;14.398;2023-10-19T13:32:39;10.48;;;6.88;;
81367;SDS011;70823;50.056;14.398;2023-10-19T13:35:06;9.30;;;6.60;;
81367;SDS011;70823;50.056;14.398;2023-10-19T13:37:32;12.13;;;7.20;;
81367;SDS011;70823;50.056;14.398;2023-10-19T13:39:57;8.52;;;6.95;;
81367;SDS011;70823;50.056;14.398;2023-10-19T13:42:24;11.85;;;7.85;;
81367;SDS011;70823;50.056;14.398;2023-10-19T13:44:49;9.27;;;6.38;;
81367;SDS011;70823;50.056;14.398;2023-10-19T13:47:14;9.20;;;6.17;;
81367;SDS011;70823;50.056;14.398;2023-10-19T13:49:40;7.90;;;6.38;;
81367;SDS011;70823;50.056;14.398;2023-10-19T13:52:06;8.68;;;7.28;;
81367;SDS011;70823;50.056;14.398;2023-10-19T13:54:33;9.05;;;6.47;;
81367;SDS011;70823;50.056;14.398;2023-10-19T13:56:59;9.55;;;6.78;;
81367;SDS011;70823;50.056;14.398;2023-10-19T13:59:24;7.90;;;6.37;;
81367;SDS011;70823;50.056;14.398;2023-10-19T14:01:50;10.77;;;6.80;;
81367;SDS011;70823;50.056;14.398;2023-10-19T14:04:15;11.05;;;7.80;;
81367;SDS011;70823;50.056;14.398;2023-10-19T14:06:41;10.65;;;6.88;;
81367;SDS011;70823;50.056;14.398;2023-10-19T14:09:07;10.13;;;7.10;;
81367;SDS011;70823;50.056;14.398;2023-10-19T14:11:37;9.60;;;7.28;;
81367;SDS011;70823;50.056;14.398;2023-10-19T14:14:03;12.82;;;7.18;;
81367;SDS011;70823;50.056;14.398;2023-10-19T14:16:28;9.90;;;6.67;;
81367;SDS011;70823;50.056;14.398;2023-10-19T14:18:53;10.52;;;8.07;;
81367;SDS011;70823;50.056;14.398;2023-10-19T14:21:21;11.90;;;7.78;;
81367;SDS011;70823;50.056;14.398;2023-10-19T14:23:46;12.33;;;8.27;;
81367;SDS011;70823;50.056;14.398;2023-10-19T14:26:13;11.88;;;7.95;;
81367;SDS011;70823;50.056;14.398;2023-10-19T14:28:38;12.43;;;7.20;;
81367;SDS011;70823;50.056;14.398;2023-10-19T14:31:05;10.77;;;7.85;;
81367;SDS011;70823;50.056;14.398;2023-10-19T14:33:32;10.65;;;7.60;;
81367;SDS011;70823;50.056;14.398;2023-10-19T14:35:59;11.05;;;6.97;;
81367;SDS011;70823;50.056;14.398;2023-10-19T14:38:25;10.20;;;8.20;;
81367;SDS011;70823;50.056;14.398;2023-10-19T14:40:52;12.20;;;7.18;;
81367;SDS011;70823;50.056;14.398;2023-10-19T14:43:18;10.88;;;7.43;;
81367;SDS011;70823;50.056;14.398;2023-10-19T14:45:43;10.83;;;7.47;;
81367;SDS011;70823;50.056;14.398;2023-10-19T14:48:09;10.52;;;7.30;;
81367;SDS011;70823;50.056;14.398;2023-10-19T14:50:35;10.48;;;7.72;;
81367;SDS011;70823;50.056;14.398;2023-10-19T14:53:02;8.35;;;6.95;;
81367;SDS011;70823;50.056;14.398;2023-10-19T14:55:28;9.68;;;7.60;;
81367;SDS011;70823;50.056;14.398;2023-10-19T14:57:54;8.68;;;7.18;;